カーディフ の空港の天気 - METARとTAF

カーディフ空港 ( EGFF / CWL ) - イギリス カーディフ
飛行場実況気象(Metar)
観測時間10/20 16:50 BST (10/20 15:50 UTC)
風向・風速東北東 5m/s
視程10km以上
天気現象
全天の4割程度の雲 雲底高度 1070m
全天の8割程度の雲 雲底高度 1370m
気温11℃
湿度71%
気圧1014hPa
METAREGFF 201550Z AUTO 06009KT 9999 SCT035 BKN045 11/06 Q1014
過去の天気等 Google飛行場航空写真 Wunderground天気予報

過去48時間のMETAR

飛行場予報(TAF)
発表時間: 10/20 11:53 BST (10/20 10:53 UTC)
予報対象時間: 20日13時 BST ~ 21日13時 BST
風向・風速北北東 5m/s
視程10km以上
少しの雲 雲底高度 910m
20日21時 BST ~ 21日10時 BST に 確率 30% で一時的に
視程9000m
天気現象弱いしゅう雨
全天の8割程度の雲 雲底高度 430m
TAF EGFF 201053Z 2012/2112 03009KT 9999 FEW030
PROB30 TEMPO 2020/2109 9000 -SHRA BKN014